Time;durP1;ratioP1;P1;durP2;ratioP2;P2;SDS_P1;SDS_P2;PMS_P1;PMS_P2;Temp;Humidity;BMP_temperature;BMP_pressure;BME280_temperature;BME280_humidity;BME280_pressure;Samples;Min_cycle;Max_cycle;Signal;HPM_P1;HPM_P2
2021/11/23 00:02:17;;;;;;;0.70;0.60;;;3.60;96.10;;;;;;5079116;28;20929;-80
2021/11/23 00:04:43;;;;;;;1.00;0.70;;;3.60;96.10;;;;;;5078713;28;20922;-80
2021/11/23 00:07:09;;;;;;;1.27;0.90;;;3.50;96.20;;;;;;5078830;28;20414;-80
2021/11/23 00:09:35;;;;;;;1.40;1.00;;;3.50;96.10;;;;;;5078987;28;20507;-79
2021/11/23 00:12:00;;;;;;;0.80;0.70;;;3.50;96.20;;;;;;5078622;28;20443;-79
2021/11/23 00:14:26;;;;;;;0.93;0.73;;;3.40;96.10;;;;;;5077959;28;20425;-79
2021/11/23 00:16:52;;;;;;;0.87;0.77;;;3.40;96.10;;;;;;5078716;28;20163;-79
2021/11/23 00:19:18;;;;;;;0.77;0.73;;;3.30;96.10;;;;;;5080808;28;20192;-79
2021/11/23 00:21:43;;;;;;;0.60;0.50;;;3.30;96.20;;;;;;5083571;28;20536;-79
2021/11/23 00:24:10;;;;;;;1.90;0.70;;;3.30;96.30;;;;;;5084101;28;20984;-79
2021/11/23 00:26:35;;;;;;;2.05;1.13;;;3.30;96.40;;;;;;5085543;28;20198;-79
2021/11/23 00:29:01;;;;;;;1.53;0.80;;;3.30;96.50;;;;;;5082583;28;20187;-79
2021/11/23 00:31:27;;;;;;;0.50;0.40;;;3.30;96.40;;;;;;5082725;28;20992;-79
2021/11/23 00:33:53;;;;;;;0.50;0.40;;;3.30;96.40;;;;;;5084170;28;20482;-79
2021/11/23 00:36:19;;;;;;;1.37;0.70;;;3.30;96.30;;;;;;5084104;28;20172;-80
2021/11/23 00:38:45;;;;;;;1.13;0.67;;;3.30;96.30;;;;;;5083504;28;20483;-79
2021/11/23 00:41:17;;;;;;;4.65;1.58;;;3.30;96.40;;;;;;5084860;28;20421;-79
2021/11/23 00:43:44;;;;;;;0.60;0.50;;;3.20;96.30;;;;;;5083485;28;20164;-79
2021/11/23 00:46:10;;;;;;;0.60;0.60;;;3.20;96.40;;;;;;5080270;28;20186;-79
2021/11/23 00:48:36;;;;;;;1.75;1.65;;;3.20;96.30;;;;;;5082166;28;20198;-79
2021/11/23 00:51:02;;;;;;;0.93;0.52;;;3.10;96.40;;;;;;5084638;28;20192;-79
2021/11/23 00:53:28;;;;;;;0.57;0.47;;;3.10;96.50;;;;;;5083730;28;20682;-79
2021/11/23 00:55:54;;;;;;;0.50;0.40;;;3.10;96.60;;;;;;5084461;28;20266;-79
2021/11/23 00:58:20;;;;;;;1.23;1.10;;;3.00;96.60;;;;;;5081970;28;20191;-79
2021/11/23 01:00:46;;;;;;;0.63;0.53;;;3.00;96.50;;;;;;5082274;28;20225;-79
2021/11/23 01:03:13;;;;;;;1.23;0.83;;;3.00;96.30;;;;;;5081838;28;20944;-79
2021/11/23 01:05:39;;;;;;;0.40;0.40;;;3.00;96.20;;;;;;5078685;28;20555;-79
2021/11/23 01:08:05;;;;;;;0.75;0.65;;;3.00;96.30;;;;;;5081410;28;20175;-79
2021/11/23 01:10:31;;;;;;;5.65;0.65;;;2.90;96.50;;;;;;5082827;28;20667;-79
2021/11/23 01:12:57;;;;;;;0.80;0.70;;;2.80;96.80;;;;;;5080733;28;20174;-79
2021/11/23 01:15:23;;;;;;;2.28;0.85;;;2.80;96.80;;;;;;5079320;28;20948;-79
2021/11/23 01:17:50;;;;;;;0.60;0.50;;;2.70;97.00;;;;;;5083384;28;20233;-79
2021/11/23 01:20:16;;;;;;;0.82;0.70;;;2.70;97.20;;;;;;5082413;28;20199;-79
2021/11/23 01:22:44;;;;;;;1.65;1.02;;;2.60;97.40;;;;;;5081608;28;20171;-79
2021/11/23 01:25:10;;;;;;;0.60;0.50;;;2.60;97.50;;;;;;5081659;28;20579;-80
2021/11/23 01:27:36;;;;;;;0.98;0.90;;;2.60;97.80;;;;;;5083734;28;20172;-79
2021/11/23 01:30:04;;;;;;;0.70;0.60;;;2.50;97.80;;;;;;5082030;28;20312;-79
2021/11/23 01:32:30;;;;;;;0.98;0.80;;;2.50;97.80;;;;;;5082494;28;20758;-79
2021/11/23 01:34:55;;;;;;;4.43;1.43;;;2.50;97.60;;;;;;5083099;28;20175;-79
2021/11/23 01:37:21;;;;;;;1.27;1.17;;;2.50;97.70;;;;;;5084687;28;20459;-79
2021/11/23 01:39:47;;;;;;;0.60;0.50;;;2.50;97.60;;;;;;5083761;28;20195;-79
2021/11/23 01:42:13;;;;;;;1.87;1.77;;;2.50;98.00;;;;;;5083299;28;20172;-79
2021/11/23 01:44:38;;;;;;;0.37;0.33;;;2.40;98.10;;;;;;5086236;28;20175;-80
2021/11/23 01:47:04;;;;;;;0.75;0.65;;;2.40;98.10;;;;;;5087191;28;20446;-79
2021/11/23 01:49:30;;;;;;;1.03;0.93;;;2.40;98.30;;;;;;5086626;28;20249;-80
2021/11/23 01:51:56;;;;;;;1.53;0.50;;;2.40;98.10;;;;;;5083489;28;20507;-80
2021/11/23 01:54:22;;;;;;;1.75;1.52;;;2.40;98.10;;;;;;5083498;28;20486;-79
2021/11/23 01:56:48;;;;;;;4.63;1.57;;;2.40;97.90;;;;;;5083527;28;20188;-79
2021/11/23 01:59:14;;;;;;;2.25;0.65;;;2.40;97.90;;;;;;5083903;28;20430;-80
2021/11/23 02:01:40;;;;;;;2.13;1.23;;;2.40;97.80;;;;;;5084055;28;20175;-79
2021/11/23 02:04:06;;;;;;;1.67;1.30;;;2.50;97.70;;;;;;5084038;28;20413;-79
2021/11/23 02:06:33;;;;;;;0.40;0.40;;;2.40;97.70;;;;;;5083138;28;20262;-79
2021/11/23 02:08:59;;;;;;;1.10;1.00;;;2.40;97.70;;;;;;5083151;28;20260;-79
2021/11/23 02:11:25;;;;;;;4.47;1.30;;;2.40;97.60;;;;;;5083008;28;20192;-79
2021/11/23 02:13:51;;;;;;;0.88;0.77;;;2.40;97.50;;;;;;5083600;28;20402;-79
2021/11/23 02:16:17;;;;;;;0.98;0.85;;;2.40;97.30;;;;;;5084810;28;20258;-79
2021/11/23 02:18:43;;;;;;;0.50;0.40;;;2.40;97.20;;;;;;5083939;28;20226;-79
2021/11/23 02:21:09;;;;;;;0.50;0.40;;;2.30;97.20;;;;;;5083673;28;20175;-80
2021/11/23 02:23:35;;;;;;;1.40;1.00;;;2.30;97.20;;;;;;5084349;28;20182;-80
2021/11/23 02:26:02;;;;;;;0.95;0.85;;;2.20;97.30;;;;;;5086064;28;20921;-79
2021/11/23 02:28:28;;;;;;;2.05;0.90;;;2.20;97.60;;;;;;5085637;28;20287;-79
2021/11/23 02:30:57;;;;;;;0.50;0.40;;;2.10;97.80;;;;;;5084339;28;20248;-79
2021/11/23 02:33:25;;;;;;;7.13;1.60;;;2.10;97.80;;;;;;5084151;28;20460;-79
2021/11/23 02:35:54;;;;;;;0.80;0.70;;;2.10;97.70;;;;;;5083422;28;20187;-79
2021/11/23 02:38:22;;;;;;;1.08;0.98;;;2.00;98.00;;;;;;5082865;28;20192;-80
2021/11/23 02:43:16;;;;;;;1.58;1.20;;;1.90;98.50;;;;;;5059174;28;20201;-81
2021/11/23 02:45:42;;;;;;;0.52;0.50;;;1.90;98.70;;;;;;5042850;28;20711;-81
2021/11/23 02:48:10;;;;;;;0.70;0.60;;;1.80;98.60;;;;;;5041746;28;20176;-81
2021/11/23 02:50:37;;;;;;;0.93;0.88;;;1.80;99.10;;;;;;5042286;28;20691;-81
2021/11/23 02:53:03;;;;;;;0.60;0.50;;;1.80;99.00;;;;;;5042520;28;20660;-82
2021/11/23 02:55:33;;;;;;;1.70;1.60;;;1.80;99.10;;;;;;5042004;28;20170;-81
2021/11/23 02:58:00;;;;;;;1.58;0.88;;;1.80;99.10;;;;;;5041507;28;20170;-82
2021/11/23 03:00:29;;;;;;;0.82;0.73;;;1.80;98.90;;;;;;5060445;28;20165;-82
2021/11/23 03:02:54;;;;;;;0.50;0.40;;;1.80;99.10;;;;;;5041743;28;20644;-81
2021/11/23 03:05:22;;;;;;;1.20;1.13;;;1.80;98.90;;;;;;5042123;28;20188;-81
2021/11/23 03:07:50;;;;;;;1.13;1.02;;;1.80;98.90;;;;;;5042150;28;20416;-81
2021/11/23 03:10:17;;;;;;;0.50;0.40;;;1.80;99.10;;;;;;5041298;28;20239;-81
2021/11/23 03:12:46;;;;;;;0.70;0.60;;;1.70;99.10;;;;;;5042090;28;20179;-81
2021/11/23 03:15:12;;;;;;;2.38;1.15;;;1.70;99.10;;;;;;5042078;28;20184;-80
2021/11/23 03:17:39;;;;;;;0.50;0.50;;;1.70;99.10;;;;;;5041792;28;20177;-80
2021/11/23 03:20:07;;;;;;;0.80;0.70;;;1.70;99.10;;;;;;5042410;28;20193;-81
2021/11/23 03:22:33;;;;;;;0.55;0.47;;;1.70;99.10;;;;;;5041014;28;20256;-81
2021/11/23 03:25:00;;;;;;;2.47;2.28;;;1.80;99.10;;;;;;5041659;28;20254;-81
2021/11/23 03:27:26;;;;;;;1.13;1.02;;;1.80;99.10;;;;;;5041944;28;20173;-81
2021/11/23 03:29:52;;;;;;;0.73;0.55;;;1.80;98.90;;;;;;5041703;28;20215;-81
2021/11/23 03:32:17;;;;;;;1.33;1.23;;;1.80;99.10;;;;;;5042373;28;20223;-81
2021/11/23 03:34:44;;;;;;;1.27;1.13;;;1.70;98.80;;;;;;5042245;28;20470;-81
2021/11/23 03:37:14;;;;;;;0.77;0.55;;;1.80;98.90;;;;;;5041988;28;20411;-81
2021/11/23 03:39:41;;;;;;;2.95;2.55;;;1.80;98.60;;;;;;5042226;28;20193;-81
2021/11/23 03:42:08;;;;;;;2.25;1.83;;;1.80;98.70;;;;;;5041468;28;20181;-81
2021/11/23 03:44:35;;;;;;;1.38;1.27;;;1.70;98.70;;;;;;5041414;28;20169;-81
2021/11/23 03:47:02;;;;;;;2.15;1.08;;;1.70;98.90;;;;;;5041628;28;20349;-81
2021/11/23 03:49:28;;;;;;;3.53;2.65;;;1.70;98.90;;;;;;5041199;28;20189;-81
2021/11/23 03:51:55;;;;;;;1.03;0.90;;;1.70;99.10;;;;;;5042313;28;20166;-81
2021/11/23 03:54:22;;;;;;;0.45;0.38;;;1.70;98.90;;;;;;5041178;28;20418;-81
2021/11/23 03:56:48;;;;;;;0.60;0.50;;;1.70;98.80;;;;;;5041655;28;20539;-81
2021/11/23 03:59:14;;;;;;;1.13;1.10;;;1.80;98.70;;;;;;5041827;28;20193;-81
2021/11/23 04:01:41;;;;;;;0.55;0.47;;;1.80;98.60;;;;;;5041952;28;20652;-81
2021/11/23 04:04:07;;;;;;;0.50;0.40;;;1.80;98.60;;;;;;5041807;28;20173;-81
2021/11/23 04:06:32;;;;;;;1.20;1.00;;;1.70;98.40;;;;;;5041889;28;20353;-81
2021/11/23 04:08:58;;;;;;;0.70;0.60;;;1.70;98.50;;;;;;5041551;28;20435;-81
2021/11/23 04:11:24;;;;;;;0.50;0.40;;;1.70;98.60;;;;;;5041862;28;20451;-81
2021/11/23 04:13:50;;;;;;;0.40;0.40;;;1.60;98.70;;;;;;5060175;28;20629;-81
2021/11/23 04:16:17;;;;;;;0.90;0.70;;;1.60;99.10;;;;;;5041294;28;20232;-81
2021/11/23 04:18:44;;;;;;;2.25;0.98;;;1.60;99.10;;;;;;5041579;28;20409;-81
2021/11/23 04:21:10;;;;;;;2.35;1.30;;;1.60;99.10;;;;;;5041712;28;20181;-81
2021/11/23 04:23:36;;;;;;;1.10;0.60;;;1.60;99.10;;;;;;5041352;28;20200;-81
2021/11/23 04:26:02;;;;;;;0.90;0.80;;;1.50;99.10;;;;;;5041045;28;20629;-81
2021/11/23 04:28:28;;;;;;;2.55;1.58;;;1.50;99.10;;;;;;5041363;28;20462;-81
2021/11/23 04:30:54;;;;;;;0.63;0.63;;;1.50;99.10;;;;;;5041601;28;20200;-81
2021/11/23 04:33:20;;;;;;;1.35;1.25;;;1.50;99.10;;;;;;5040707;28;20434;-81
2021/11/23 04:35:46;;;;;;;1.57;1.40;;;1.40;99.10;;;;;;5041512;28;20165;-81
2021/11/23 04:38:12;;;;;;;1.37;0.93;;;1.40;99.10;;;;;;5040941;28;20950;-81
2021/11/23 04:40:39;;;;;;;0.50;0.40;;;1.30;99.10;;;;;;5041275;28;20411;-81
2021/11/23 04:43:06;;;;;;;5.65;1.52;;;1.40;99.10;;;;;;5041975;28;20188;-81
2021/11/23 04:45:36;;;;;;;0.75;0.65;;;1.40;99.10;;;;;;5041170;28;20641;-81
2021/11/23 04:48:02;;;;;;;1.75;0.50;;;1.50;99.10;;;;;;5040556;28;20188;-80
2021/11/23 04:50:32;;;;;;;1.98;1.05;;;1.50;99.10;;;;;;5040508;28;20228;-80
2021/11/23 04:52:58;;;;;;;0.60;0.50;;;1.40;99.10;;;;;;5040786;28;20150;-80
2021/11/23 04:55:24;;;;;;;0.77;0.60;;;1.30;99.10;;;;;;5040447;28;20176;-80
2021/11/23 04:57:50;;;;;;;3.22;1.20;;;1.30;99.10;;;;;;5040843;28;20415;-80
2021/11/23 05:00:17;;;;;;;1.90;1.80;;;1.30;99.10;;;;;;5043886;28;20180;-80
2021/11/23 05:02:44;;;;;;;0.80;0.63;;;1.30;99.10;;;;;;5044516;28;20415;-80
2021/11/23 05:05:11;;;;;;;1.90;1.80;;;1.30;99.10;;;;;;5044324;28;20208;-80
2021/11/23 05:07:38;;;;;;;2.70;1.08;;;1.30;99.10;;;;;;5045038;28;20177;-80
2021/11/23 05:10:06;;;;;;;5.78;1.00;;;1.30;99.10;;;;;;5044028;28;20212;-81
2021/11/23 05:12:32;;;;;;;0.50;0.40;;;1.20;99.10;;;;;;5043399;28;20641;-80
2021/11/23 05:14:58;;;;;;;4.72;0.80;;;1.20;99.10;;;;;;5044801;28;20195;-80
2021/11/23 05:17:24;;;;;;;0.70;0.60;;;1.20;99.10;;;;;;5044264;28;20196;-82
2021/11/23 05:19:51;;;;;;;1.30;1.20;;;1.20;99.10;;;;;;5044276;28;20201;-81
2021/11/23 05:22:17;;;;;;;1.60;0.88;;;1.10;99.10;;;;;;5043350;28;20181;-80
2021/11/23 05:24:42;;;;;;;6.15;0.75;;;1.10;99.10;;;;;;5042654;28;20177;-80
2021/11/23 05:27:08;;;;;;;1.43;0.90;;;1.10;99.10;;;;;;5042933;28;20177;-80
2021/11/23 05:29:34;;;;;;;3.97;1.57;;;1.10;99.10;;;;;;5042740;28;20955;-80
2021/11/23 05:32:01;;;;;;;1.50;0.85;;;1.10;99.10;;;;;;5042661;28;20434;-81
2021/11/23 05:34:26;;;;;;;0.70;0.60;;;1.10;99.10;;;;;;5042875;28;20169;-81
2021/11/23 05:36:52;;;;;;;0.30;0.30;;;1.10;99.10;;;;;;5043348;28;20180;-82
2021/11/23 05:39:18;;;;;;;2.08;1.13;;;1.00;99.10;;;;;;5043792;28;20454;-82
2021/11/23 05:41:45;;;;;;;0.50;0.50;;;1.00;99.10;;;;;;5043530;28;20196;-79
2021/11/23 05:44:12;;;;;;;1.25;0.60;;;1.00;99.10;;;;;;5042494;28;20188;-79
2021/11/23 05:46:39;;;;;;;2.13;1.80;;;1.00;99.10;;;;;;5042196;28;20668;-79
2021/11/23 05:49:05;;;;;;;0.90;0.80;;;1.00;99.10;;;;;;5041618;28;20665;-80
2021/11/23 05:51:32;;;;;;;16.10;1.08;;;1.00;99.10;;;;;;5042463;28;20216;-80
2021/11/23 05:53:58;;;;;;;0.50;0.50;;;1.00;99.10;;;;;;5042684;28;20173;-79
2021/11/23 05:56:24;;;;;;;0.95;0.85;;;1.00;99.10;;;;;;5042743;28;20216;-79
2021/11/23 05:58:50;;;;;;;0.97;0.87;;;1.00;99.10;;;;;;5047614;28;20189;-79
2021/11/23 06:01:16;;;;;;;8.60;2.87;;;1.00;99.10;;;;;;5037563;28;20391;-78
2021/11/23 06:03:42;;;;;;;0.80;0.70;;;1.00;99.10;;;;;;5038387;28;20416;-78
2021/11/23 06:06:08;;;;;;;4.00;3.40;;;1.10;99.10;;;;;;5037658;28;20177;-78
2021/11/23 06:08:34;;;;;;;22.17;1.53;;;1.10;99.10;;;;;;5037394;28;20202;-78
2021/11/23 06:10:59;;;;;;;1.33;1.33;;;1.10;99.10;;;;;;5036766;28;20427;-78
2021/11/23 06:13:25;;;;;;;1.33;1.27;;;1.20;99.10;;;;;;5037346;28;20499;-78
2021/11/23 06:15:51;;;;;;;0.80;0.70;;;1.20;99.10;;;;;;5037955;28;20408;-79
2021/11/23 06:18:17;;;;;;;2.63;1.00;;;1.20;98.90;;;;;;5040904;28;20774;-79
2021/11/23 06:20:46;;;;;;;0.60;0.50;;;1.20;98.90;;;;;;5041469;28;20430;-80
2021/11/23 06:23:13;;;;;;;0.68;0.57;;;1.20;98.90;;;;;;5043310;28;20419;-80
2021/11/23 06:25:42;;;;;;;7.40;1.55;;;1.20;98.70;;;;;;5041747;28;20204;-80
2021/11/23 06:28:10;;;;;;;2.95;1.65;;;1.20;98.50;;;;;;5040010;28;20173;-79
2021/11/23 06:30:36;;;;;;;2.25;1.58;;;1.20;98.60;;;;;;5041124;28;20201;-79
2021/11/23 06:33:02;;;;;;;1.23;1.13;;;1.10;98.60;;;;;;5040567;28;20265;-80
2021/11/23 06:35:28;;;;;;;1.98;1.58;;;1.10;98.40;;;;;;5043026;28;20269;-79
2021/11/23 06:37:54;;;;;;;0.77;0.67;;;1.10;98.10;;;;;;5042028;28;20227;-80
2021/11/23 06:40:21;;;;;;;1.83;1.40;;;1.10;98.10;;;;;;5026379;28;20450;-79
2021/11/23 06:42:47;;;;;;;1.27;1.17;;;1.00;98.40;;;;;;5040752;28;20560;-79
2021/11/23 06:45:13;;;;;;;1.00;0.90;;;1.00;98.90;;;;;;5036851;28;20415;-79
2021/11/23 06:47:39;;;;;;;0.98;0.88;;;1.00;99.00;;;;;;5036918;28;20420;-79
2021/11/23 06:50:09;;;;;;;7.85;0.95;;;0.90;99.10;;;;;;5036933;28;20204;-78
2021/11/23 06:52:35;;;;;;;6.93;1.48;;;0.90;99.10;;;;;;5036869;28;20165;-78
2021/11/23 06:55:01;;;;;;;0.73;0.63;;;0.80;99.10;;;;;;5036882;28;20539;-81
2021/11/23 06:57:27;;;;;;;1.40;1.30;;;0.80;99.10;;;;;;5038449;28;20493;-80
2021/11/23 06:59:53;;;;;;;1.33;1.23;;;0.80;99.10;;;;;;5036375;28;20193;-79
2021/11/23 07:02:18;;;;;;;0.50;0.40;;;0.80;99.10;;;;;;5037206;28;20420;-80
2021/11/23 07:04:44;;;;;;;1.63;0.90;;;0.80;99.10;;;;;;5039460;28;20427;-80
2021/11/23 07:07:12;;;;;;;0.50;0.40;;;0.80;99.10;;;;;;5037181;28;20379;-79
2021/11/23 07:09:37;;;;;;;0.95;0.85;;;0.80;99.10;;;;;;5037068;28;20258;-78
2021/11/23 07:12:04;;;;;;;1.80;1.70;;;0.80;99.10;;;;;;5036302;28;20181;-79
2021/11/23 07:14:31;;;;;;;0.65;0.55;;;0.90;99.10;;;;;;5036048;28;20177;-79
2021/11/23 07:16:57;;;;;;;1.38;0.70;;;0.90;99.10;;;;;;5036225;28;20608;-79
2021/11/23 07:19:23;;;;;;;0.83;0.70;;;0.90;99.10;;;;;;5034870;28;20279;-79
2021/11/23 07:21:48;;;;;;;2.15;1.08;;;1.00;99.10;;;;;;5035464;28;20420;-79
2021/11/23 07:24:14;;;;;;;1.83;1.30;;;1.00;99.10;;;;;;5034364;28;20645;-79
2021/11/23 07:26:40;;;;;;;15.02;2.17;;;1.00;99.10;;;;;;5035357;28;20435;-79
2021/11/23 07:29:08;;;;;;;2.33;2.13;;;1.00;99.10;;;;;;5035580;28;20657;-79
2021/11/23 07:31:34;;;;;;;0.70;0.60;;;1.10;99.10;;;;;;5035634;28;20830;-79
2021/11/23 07:34:00;;;;;;;1.52;1.42;;;1.10;99.10;;;;;;5035334;28;20266;-79
2021/11/23 07:36:27;;;;;;;1.20;1.08;;;1.10;99.10;;;;;;5035224;28;20169;-79
2021/11/23 07:38:55;;;;;;;1.55;1.08;;;1.20;99.10;;;;;;5035328;28;20189;-79
2021/11/23 07:41:21;;;;;;;0.45;0.43;;;1.20;99.10;;;;;;5035124;28;20195;-79
2021/11/23 07:43:47;;;;;;;0.77;0.68;;;1.20;99.10;;;;;;5035255;28;20173;-79
2021/11/23 07:46:14;;;;;;;1.30;0.90;;;1.20;99.10;;;;;;5035014;28;20196;-79
2021/11/23 07:48:39;;;;;;;3.70;2.05;;;1.20;99.10;;;;;;5034884;28;20319;-79
2021/11/23 07:51:06;;;;;;;0.63;0.60;;;1.30;99.10;;;;;;5035532;28;20292;-79
2021/11/23 07:53:32;;;;;;;1.15;1.10;;;1.30;99.10;;;;;;5035623;28;20408;-79
2021/11/23 07:55:58;;;;;;;1.17;1.10;;;1.30;99.10;;;;;;5035408;28;20173;-79
2021/11/23 07:58:24;;;;;;;1.15;0.93;;;1.30;99.10;;;;;;5035382;28;20189;-79
2021/11/23 08:00:49;;;;;;;1.00;0.90;;;1.30;99.10;;;;;;5035222;28;20170;-79
2021/11/23 08:03:16;;;;;;;0.60;0.50;;;1.30;99.10;;;;;;5035105;28;20410;-79
2021/11/23 08:05:42;;;;;;;0.98;0.88;;;1.30;99.10;;;;;;5035270;28;20455;-79
2021/11/23 08:08:12;;;;;;;0.77;0.65;;;1.30;99.10;;;;;;5035119;28;20173;-79
2021/11/23 08:10:38;;;;;;;1.15;1.05;;;1.30;99.10;;;;;;5035064;28;20208;-79
2021/11/23 08:13:04;;;;;;;0.63;0.52;;;1.40;99.10;;;;;;5034948;28;20430;-79
2021/11/23 08:15:30;;;;;;;1.30;0.70;;;1.40;99.10;;;;;;5034684;28;20177;-79
2021/11/23 08:17:56;;;;;;;1.70;1.60;;;1.40;99.10;;;;;;5034705;28;20411;-79
2021/11/23 08:20:22;;;;;;;1.27;0.67;;;1.40;99.10;;;;;;5034757;28;20264;-79
2021/11/23 08:22:49;;;;;;;0.30;0.30;;;1.40;99.00;;;;;;5034876;28;20984;-80
2021/11/23 08:25:15;;;;;;;1.00;0.70;;;1.30;99.10;;;;;;5034375;28;20420;-79
2021/11/23 08:27:42;;;;;;;1.17;1.13;;;1.40;99.10;;;;;;5052543;28;20178;-80
2021/11/23 08:30:09;;;;;;;1.60;0.60;;;1.40;99.10;;;;;;5034429;28;20205;-79
2021/11/23 08:32:36;;;;;;;0.88;0.63;;;1.50;99.10;;;;;;5052466;28;20170;-80
2021/11/23 08:35:02;;;;;;;2.05;1.70;;;1.50;99.10;;;;;;5034162;28;20175;-79
2021/11/23 08:37:28;;;;;;;1.02;0.57;;;1.50;99.10;;;;;;5034562;28;20557;-79
2021/11/23 08:39:55;;;;;;;0.53;0.47;;;1.60;99.10;;;;;;5034916;28;20197;-80
2021/11/23 08:42:21;;;;;;;1.73;1.00;;;1.60;99.10;;;;;;5060688;22;20566;-81
2021/11/23 08:44:48;;;;;;;1.13;1.02;;;1.70;98.90;;;;;;5079020;28;20170;-81
2021/11/23 08:47:15;;;;;;;0.88;0.77;;;1.80;98.50;;;;;;5097255;28;20251;-80
2021/11/23 08:49:41;;;;;;;3.05;0.93;;;1.80;98.40;;;;;;5079409;28;20674;-81
2021/11/23 08:52:07;;;;;;;0.88;0.77;;;1.90;98.30;;;;;;5079529;28;20167;-80
2021/11/23 08:54:33;;;;;;;10.90;1.70;;;2.00;97.60;;;;;;5078957;28;20168;-81
2021/11/23 08:57:03;;;;;;;0.90;0.80;;;2.00;97.30;;;;;;5079002;28;20168;-81
2021/11/23 08:59:32;;;;;;;2.60;0.93;;;2.10;97.10;;;;;;5078680;28;20195;-81
2021/11/23 09:01:58;;;;;;;0.60;0.50;;;2.20;96.90;;;;;;5078107;28;20254;-81
2021/11/23 09:04:24;;;;;;;2.53;2.15;;;2.20;96.80;;;;;;5078138;28;20200;-80
2021/11/23 09:06:50;;;;;;;0.52;0.43;;;2.30;96.30;;;;;;5083828;28;20631;-80
2021/11/23 09:09:16;;;;;;;2.87;1.23;;;2.30;95.90;;;;;;5079930;28;20198;-79
2021/11/23 09:11:42;;;;;;;0.88;0.77;;;2.40;96.00;;;;;;5079119;28;20482;-79
2021/11/23 09:14:08;;;;;;;0.60;0.50;;;2.40;96.20;;;;;;5079279;28;20168;-79
2021/11/23 09:16:35;;;;;;;2.55;2.00;;;2.50;95.60;;;;;;5083728;28;20263;-80
2021/11/23 09:19:02;;;;;;;0.95;0.90;;;2.40;95.50;;;;;;5079810;28;20769;-79
2021/11/23 09:21:28;;;;;;;3.10;1.95;;;2.50;95.60;;;;;;5080356;28;20184;-80
2021/11/23 09:23:56;;;;;;;0.50;0.40;;;2.50;95.10;;;;;;5079667;28;20180;-79
2021/11/23 09:26:23;;;;;;;1.85;0.90;;;2.60;95.10;;;;;;5078961;28;20421;-80
2021/11/23 09:28:49;;;;;;;1.30;1.15;;;2.60;94.30;;;;;;5078515;28;20200;-80
2021/11/23 09:31:16;;;;;;;0.75;0.68;;;2.60;95.00;;;;;;5078732;28;20719;-79
2021/11/23 09:33:42;;;;;;;3.78;1.75;;;2.70;95.10;;;;;;5078087;28;20174;-80
2021/11/23 09:36:10;;;;;;;1.50;0.60;;;2.70;94.30;;;;;;5080501;28;20177;-79
2021/11/23 09:38:37;;;;;;;1.45;1.05;;;2.70;94.10;;;;;;5079628;28;20237;-79
2021/11/23 09:41:04;;;;;;;1.33;1.25;;;2.90;94.30;;;;;;5076967;28;20182;-79
2021/11/23 09:43:31;;;;;;;2.20;2.03;;;2.90;94.00;;;;;;5076793;28;20187;-79
2021/11/23 09:45:57;;;;;;;1.50;1.42;;;2.90;93.60;;;;;;5076734;28;20167;-79
2021/11/23 09:48:23;;;;;;;2.80;1.95;;;2.90;92.90;;;;;;5080895;28;20216;-80
2021/11/23 09:50:50;;;;;;;1.30;1.10;;;2.90;92.60;;;;;;5080019;28;20336;-79
2021/11/23 09:53:18;;;;;;;12.88;1.60;;;3.00;93.00;;;;;;5082230;28;20653;-79
2021/11/23 09:55:51;;;;;;;3.33;0.80;;;3.10;92.90;;;;;;5081042;28;20619;-81
2021/11/23 09:58:17;;;;;;;3.28;2.58;;;3.10;93.00;;;;;;5082400;28;20194;-81
2021/11/23 10:00:48;;;;;;;1.30;1.08;;;3.20;93.00;;;;;;5081931;28;20176;-81
2021/11/23 10:03:29;;;;;;;1.23;0.70;;;3.30;92.80;;;;;;5081116;28;20209;-81
2021/11/23 10:06:07;;;;;;;0.60;0.50;;;3.30;93.10;;;;;;5081062;28;20195;-80
2021/11/23 10:08:34;;;;;;;1.35;1.20;;;3.40;92.60;;;;;;5080895;28;20196;-80
2021/11/23 10:11:00;;;;;;;0.55;0.50;;;3.40;92.00;;;;;;5081153;28;20230;-80
2021/11/23 10:13:40;;;;;;;3.00;1.40;;;3.50;92.20;;;;;;5080176;28;20584;-80
2021/11/23 10:16:05;;;;;;;0.70;0.60;;;3.50;92.10;;;;;;5080558;28;20172;-80
2021/11/23 10:18:31;;;;;;;0.50;0.40;;;3.60;91.70;;;;;;5080564;28;20196;-80
2021/11/23 10:21:00;;;;;;;1.53;1.43;;;3.60;91.30;;;;;;5080086;28;20183;-80
2021/11/23 10:23:33;;;;;;;1.23;0.93;;;3.60;91.40;;;;;;5081723;28;20413;-81
2021/11/23 10:26:15;;;;;;;0.68;0.57;;;3.50;91.50;;;;;;5080867;28;20703;-79
2021/11/23 10:28:44;;;;;;;2.45;0.70;;;3.60;91.70;;;;;;5081424;28;20203;-80
2021/11/23 10:31:12;;;;;;;1.08;0.98;;;3.70;91.10;;;;;;5079123;28;20208;-80
2021/11/23 10:33:38;;;;;;;6.57;2.58;;;3.70;91.10;;;;;;5079827;28;20537;-81
2021/11/23 10:36:09;;;;;;;4.45;1.52;;;3.70;91.30;;;;;;5083310;28;20175;-80
2021/11/23 10:38:39;;;;;;;1.25;0.90;;;3.90;90.80;;;;;;5097618;28;20577;-80
2021/11/23 10:41:12;;;;;;;0.70;0.60;;;4.00;90.30;;;;;;5079166;28;20172;-80
2021/11/23 10:43:41;;;;;;;1.15;0.93;;;4.10;90.10;;;;;;5079002;28;20235;-81
2021/11/23 10:46:19;;;;;;;4.00;1.10;;;4.20;88.90;;;;;;5081065;28;20172;-80
2021/11/23 10:48:56;;;;;;;1.20;1.10;;;4.20;87.80;;;;;;5079384;28;20199;-80
2021/11/23 10:51:24;;;;;;;1.33;1.23;;;4.30;87.10;;;;;;5079601;28;20199;-80
2021/11/23 10:53:53;;;;;;;2.78;1.30;;;4.40;87.60;;;;;;5078695;28;20168;-80
2021/11/23 10:56:20;;;;;;;1.48;0.80;;;4.50;86.70;;;;;;5079790;28;20176;-80
2021/11/23 10:58:48;;;;;;;1.67;0.60;;;4.60;86.20;;;;;;5078392;28;20187;-80
2021/11/23 11:01:15;;;;;;;4.13;1.85;;;4.60;86.70;;;;;;5079877;28;20267;-81
2021/11/23 11:03:43;;;;;;;4.10;2.13;;;4.70;86.70;;;;;;5079276;28;20176;-80
2021/11/23 11:06:13;;;;;;;1.23;1.00;;;4.80;86.70;;;;;;5080761;28;20574;-82
2021/11/23 11:08:47;;;;;;;1.75;1.20;;;4.90;85.10;;;;;;5079246;28;20191;-79
2021/11/23 11:11:16;;;;;;;0.73;0.70;;;5.00;84.50;;;;;;5077674;28;20625;-80
2021/11/23 11:13:48;;;;;;;1.38;1.05;;;5.10;83.40;;;;;;5077769;28;20539;-80
2021/11/23 11:16:16;;;;;;;1.33;1.23;;;5.20;83.50;;;;;;5077808;28;20175;-80
2021/11/23 11:19:06;;;;;;;1.02;0.93;;;5.30;82.70;;;;;;5077660;28;20325;-80
2021/11/23 11:21:37;;;;;;;0.90;0.80;;;5.40;81.60;;;;;;5077570;28;20164;-80
2021/11/23 11:27:14;;;;;;;1.25;0.60;;;5.60;80.90;;;;;;5096186;28;20247;-79
2021/11/23 11:29:41;;;;;;;0.63;0.60;;;5.70;80.90;;;;;;5077485;28;20551;-79
2021/11/23 11:32:32;;;;;;;0.70;0.70;;;5.70;80.60;;;;;;5077760;28;20743;-80
2021/11/23 11:35:28;;;;;;;0.70;0.60;;;5.80;79.80;;;;;;5078061;28;20527;-80
2021/11/23 11:38:00;;;;;;;1.30;0.88;;;5.80;78.50;;;;;;5077681;28;20206;-81
2021/11/23 11:40:34;;;;;;;0.45;0.43;;;5.90;78.80;;;;;;5079186;28;20211;-81
2021/11/23 11:43:06;;;;;;;0.93;0.68;;;6.00;78.40;;;;;;5082654;28;20803;-79
2021/11/23 11:45:49;;;;;;;0.98;0.88;;;6.00;79.10;;;;;;5080752;28;20172;-80
2021/11/23 11:48:38;;;;;;;0.90;0.60;;;6.10;78.90;;;;;;5082818;28;20191;-81
2021/11/23 11:51:05;;;;;;;1.23;1.13;;;6.10;78.70;;;;;;5065466;28;20207;-79
2021/11/23 11:53:37;;;;;;;0.98;0.88;;;6.20;78.40;;;;;;5077250;28;20168;-79
2021/11/23 11:56:04;;;;;;;1.60;1.00;;;6.20;78.40;;;;;;5077389;28;20171;-80
2021/11/23 11:58:45;;;;;;;0.52;0.50;;;6.20;77.80;;;;;;5077438;28;20188;-80
2021/11/23 12:01:28;;;;;;;0.93;0.88;;;6.20;78.30;;;;;;5077041;28;20266;-80
2021/11/23 12:04:26;;;;;;;2.90;1.40;;;6.30;77.70;;;;;;5077351;28;20201;-82
2021/11/23 12:07:06;;;;;;;2.35;1.23;;;6.30;77.40;;;;;;5057387;28;20180;-82
2021/11/23 12:09:38;;;;;;;0.75;0.65;;;6.40;77.10;;;;;;5076018;28;20274;-81
2021/11/23 12:12:10;;;;;;;0.60;0.50;;;6.50;75.50;;;;;;5076216;28;20204;-81
2021/11/23 12:15:09;;;;;;;0.85;0.85;;;6.50;75.60;;;;;;5076064;28;20171;-80
2021/11/23 12:18:19;;;;;;;2.55;0.77;;;6.50;74.60;;;;;;5067464;28;20185;-81
2021/11/23 12:21:08;;;;;;;1.10;1.00;;;6.60;75.10;;;;;;4976112;28;20183;-80
2021/11/23 12:23:49;;;;;;;0.90;0.80;;;6.60;74.90;;;;;;5093920;28;20174;-80
2021/11/23 12:26:17;;;;;;;1.15;0.98;;;6.70;74.60;;;;;;5077372;28;20179;-79
2021/11/23 12:28:59;;;;;;;1.13;0.90;;;6.90;74.10;;;;;;5075570;28;20203;-81
2021/11/23 12:31:30;;;;;;;0.93;0.82;;;6.90;73.90;;;;;;5076593;28;20227;-82
2021/11/23 12:34:01;;;;;;;0.60;0.50;;;6.90;75.20;;;;;;5076215;28;20183;-82
2021/11/23 12:36:30;;;;;;;1.10;0.75;;;6.90;72.40;;;;;;5076319;28;20174;-81
2021/11/23 12:39:07;;;;;;;0.93;0.82;;;6.90;71.40;;;;;;5076077;28;20194;-81
2021/11/23 12:41:33;;;;;;;1.67;1.30;;;6.90;72.60;;;;;;5075888;28;20180;-82
2021/11/23 12:43:59;;;;;;;1.10;1.00;;;7.00;72.80;;;;;;5076259;28;20187;-81
2021/11/23 12:46:26;;;;;;;0.67;0.63;;;7.00;72.40;;;;;;5075729;28;20184;-81
2021/11/23 12:48:54;;;;;;;0.60;0.50;;;7.00;71.40;;;;;;5076012;28;20664;-80
2021/11/23 12:51:31;;;;;;;0.77;0.68;;;7.00;71.20;;;;;;5075521;28;20195;-81
2021/11/23 12:54:04;;;;;;;0.60;0.50;;;7.00;71.40;;;;;;5075714;28;20209;-81
2021/11/23 12:56:58;;;;;;;4.70;1.50;;;6.90;71.60;;;;;;5075786;28;20624;-81
2021/11/23 12:59:43;;;;;;;2.08;0.50;;;6.90;71.30;;;;;;5075814;28;20283;-81
2021/11/23 13:02:36;;;;;;;1.10;0.80;;;6.90;72.30;;;;;;5075145;28;20564;-81
2021/11/23 13:05:19;;;;;;;1.48;1.02;;;6.90;72.30;;;;;;5075536;28;20663;-79
2021/11/23 13:07:53;;;;;;;3.05;0.85;;;6.80;73.50;;;;;;5075811;28;20212;-80
2021/11/23 13:10:32;;;;;;;1.20;0.93;;;6.80;73.30;;;;;;5075440;28;20199;-80